createdAt,value
2017-12-14T00:00:53.597Z,2.55
2017-12-14T00:03:19.622Z,3.80
2017-12-14T00:05:45.596Z,3.28
2017-12-14T00:08:11.600Z,3.10
2017-12-14T00:10:37.628Z,2.70
2017-12-14T00:13:03.571Z,2.90
2017-12-14T00:15:29.565Z,2.70
2017-12-14T00:17:55.540Z,2.75
2017-12-14T00:20:23.002Z,2.80
2017-12-14T00:22:49.009Z,3.60
2017-12-14T00:25:14.948Z,2.10
2017-12-14T00:27:41.664Z,2.60
2017-12-14T00:30:07.808Z,2.47
2017-12-14T00:32:33.770Z,2.40
2017-12-14T00:34:59.761Z,2.80
2017-12-14T00:37:26.492Z,2.55
2017-12-14T00:39:52.454Z,2.90
2017-12-14T00:42:18.429Z,3.20
2017-12-14T00:44:45.800Z,3.10
2017-12-14T00:47:12.512Z,3.42
2017-12-14T00:49:38.474Z,3.03
2017-12-14T00:52:04.480Z,3.30
2017-12-14T00:54:31.191Z,3.20
2017-12-14T00:56:57.186Z,2.90
2017-12-14T00:59:23.357Z,12.90
2017-12-14T01:01:50.076Z,3.28
2017-12-14T01:04:16.044Z,2.45
2017-12-14T01:06:42.236Z,1.70
2017-12-14T01:09:08.217Z,1.85
2017-12-14T01:11:34.218Z,1.50
2017-12-14T01:14:00.173Z,2.00
2017-12-14T01:16:26.147Z,4.68
2017-12-14T01:18:52.140Z,2.00
2017-12-14T01:21:18.096Z,1.80
2017-12-14T01:23:44.068Z,1.87
2017-12-14T01:26:10.040Z,1.90
2017-12-14T01:28:36.009Z,1.80
2017-12-14T01:31:01.995Z,1.90
2017-12-14T01:33:27.972Z,1.60
2017-12-14T01:35:53.958Z,1.70
2017-12-14T01:38:19.916Z,1.90
2017-12-14T01:40:46.672Z,2.20
2017-12-14T01:43:13.406Z,1.60
2017-12-14T01:45:40.109Z,2.03
2017-12-14T01:48:06.096Z,1.50
2017-12-14T01:50:32.057Z,2.70
2017-12-14T01:52:58.024Z,1.60
2017-12-14T01:55:24.048Z,1.83
2017-12-14T01:57:50.015Z,3.80
2017-12-14T02:00:15.992Z,2.00
2017-12-14T02:02:42.304Z,1.90
2017-12-14T02:05:09.048Z,2.30
2017-12-14T02:07:35.794Z,3.00
2017-12-14T02:10:01.758Z,3.45
2017-12-14T02:12:27.719Z,3.42
2017-12-14T02:14:54.443Z,3.85
2017-12-14T02:17:20.432Z,3.80
2017-12-14T02:19:46.405Z,4.30
2017-12-14T02:22:13.139Z,4.27
2017-12-14T02:24:39.860Z,3.92
2017-12-14T02:27:05.960Z,3.80
2017-12-14T02:29:31.952Z,4.30
2017-12-14T02:31:57.933Z,3.80
2017-12-14T02:34:23.989Z,4.10
2017-12-14T02:36:49.920Z,4.15
2017-12-14T02:39:15.892Z,4.10
2017-12-14T02:41:41.876Z,3.75
2017-12-14T02:44:07.852Z,6.10
2017-12-14T02:46:34.565Z,3.92
2017-12-14T02:49:00.914Z,4.17
2017-12-14T02:51:26.950Z,4.07
2017-12-14T02:53:53.752Z,4.60
2017-12-14T02:56:19.708Z,4.10
2017-12-14T02:58:46.468Z,3.45
2017-12-14T03:01:12.461Z,3.70
2017-12-14T03:03:39.200Z,6.18
2017-12-14T03:06:05.932Z,5.05
2017-12-14T03:08:31.947Z,3.87
2017-12-14T03:10:57.945Z,3.90
2017-12-14T03:13:23.912Z,4.50
2017-12-14T03:15:50.671Z,2.50
2017-12-14T03:18:16.657Z,4.65
2017-12-14T03:20:42.890Z,7.28
2017-12-14T03:23:09.613Z,5.93
2017-12-14T03:25:35.612Z,5.32
2017-12-14T03:28:01.584Z,3.25
2017-12-14T03:30:28.313Z,5.70
2017-12-14T03:33:02.404Z,5.72
2017-12-14T03:35:28.404Z,7.72
2017-12-14T03:37:54.365Z,6.68
2017-12-14T03:40:20.484Z,7.95
2017-12-14T03:42:46.480Z,7.50
2017-12-14T03:45:12.701Z,5.28
2017-12-14T03:47:38.703Z,9.80
2017-12-14T03:50:04.680Z,6.60
2017-12-14T03:52:31.441Z,5.50
2017-12-14T03:54:58.377Z,10.33
2017-12-14T03:57:25.096Z,8.63
2017-12-14T03:59:51.841Z,11.15
2017-12-14T04:02:17.845Z,8.70
2017-12-14T04:04:43.851Z,6.97
2017-12-14T04:07:09.860Z,10.15
2017-12-14T04:09:35.851Z,9.10
2017-12-14T04:12:01.827Z,12.05
2017-12-14T04:14:27.801Z,8.70
2017-12-14T04:16:53.869Z,11.00
2017-12-14T04:19:19.857Z,10.38
2017-12-14T04:21:45.836Z,14.40
2017-12-14T04:24:12.216Z,11.00
2017-12-14T04:26:38.200Z,15.45
2017-12-14T04:29:04.906Z,13.38
2017-12-14T04:31:30.901Z,13.38
2017-12-14T04:33:56.932Z,19.05
2017-12-14T04:36:22.880Z,14.13
2017-12-14T04:38:49.225Z,12.02
2017-12-14T04:41:16.001Z,17.40
2017-12-14T04:43:42.002Z,13.55
2017-12-14T04:46:08.256Z,15.75
2017-12-14T04:48:34.259Z,10.93
2017-12-14T04:51:00.226Z,17.75
2017-12-14T04:53:26.579Z,14.50
2017-12-14T04:55:52.556Z,14.43
2017-12-14T04:58:18.540Z,18.30
2017-12-14T05:00:45.304Z,14.35
2017-12-14T05:03:11.288Z,13.60
2017-12-14T05:05:37.657Z,20.62
2017-12-14T05:08:04.352Z,20.35
2017-12-14T05:10:30.333Z,16.67
2017-12-14T05:12:56.304Z,16.30
2017-12-14T05:15:23.044Z,18.35
2017-12-14T05:17:49.736Z,23.02
2017-12-14T05:20:15.828Z,17.75
2017-12-14T05:22:41.804Z,19.05
2017-12-14T05:25:07.789Z,24.08
2017-12-14T05:27:33.777Z,19.95
2017-12-14T05:30:00.490Z,18.80
2017-12-14T05:32:26.471Z,20.73
2017-12-14T05:34:52.549Z,18.07
2017-12-14T05:37:18.508Z,18.48
2017-12-14T05:39:44.487Z,20.27
2017-12-14T05:42:11.537Z,16.90
2017-12-14T05:44:37.496Z,20.08
2017-12-14T05:47:03.488Z,18.02
2017-12-14T05:49:30.184Z,17.10
2017-12-14T05:51:56.167Z,16.70
2017-12-14T05:54:22.456Z,17.90
2017-12-14T05:56:48.436Z,19.65
2017-12-14T05:59:14.424Z,14.70
2017-12-14T06:01:41.446Z,21.57
2017-12-14T06:04:07.415Z,18.00
2017-12-14T06:06:33.365Z,14.80
2017-12-14T06:08:59.357Z,18.85
2017-12-14T06:11:25.363Z,17.45
2017-12-14T06:13:51.353Z,29.40
2017-12-14T06:16:17.356Z,16.23
2017-12-14T06:18:43.376Z,17.12
2017-12-14T06:21:09.343Z,16.40
2017-12-14T06:23:36.094Z,17.50
2017-12-14T06:26:02.069Z,15.10
2017-12-14T06:28:28.049Z,21.87
2017-12-14T06:30:54.014Z,19.37
2017-12-14T06:33:20.730Z,18.95
2017-12-14T06:35:46.704Z,19.02
2017-12-14T06:38:13.436Z,22.33
2017-12-14T06:40:40.188Z,20.27
2017-12-14T06:43:06.887Z,19.60
2017-12-14T06:45:32.870Z,18.65
2017-12-14T06:47:58.849Z,15.95
2017-12-14T06:50:25.613Z,15.50
2017-12-14T06:52:51.617Z,16.58
2017-12-14T06:55:18.315Z,17.02
2017-12-14T06:57:44.309Z,18.60
2017-12-14T07:00:10.279Z,19.52
2017-12-14T07:02:36.264Z,18.75
2017-12-14T07:05:02.245Z,20.08
2017-12-14T07:07:28.979Z,17.37
2017-12-14T07:09:55.692Z,18.98
2017-12-14T07:12:22.028Z,19.45
2017-12-14T07:14:48.001Z,17.52
2017-12-14T07:17:13.963Z,23.20
2017-12-14T07:19:40.315Z,16.83
2017-12-14T07:22:06.291Z,20.65
2017-12-14T07:24:32.272Z,20.55
2017-12-14T07:26:59.001Z,20.70
2017-12-14T07:29:25.723Z,18.10
2017-12-14T07:31:51.702Z,17.27
2017-12-14T07:34:17.709Z,20.75
2017-12-14T07:36:43.684Z,18.83
2017-12-14T07:39:09.637Z,18.80
2017-12-14T07:41:36.396Z,21.58
2017-12-14T07:44:14.839Z,22.58
2017-12-14T07:46:53.342Z,16.25
2017-12-14T07:49:21.276Z,22.67
2017-12-14T07:51:47.241Z,18.45
2017-12-14T07:54:13.226Z,21.23
2017-12-14T07:56:39.180Z,23.90
2017-12-14T07:59:05.155Z,19.48
2017-12-14T08:01:31.156Z,22.35
2017-12-14T08:03:57.129Z,19.62
2017-12-14T08:06:23.091Z,23.23
2017-12-14T08:08:49.435Z,21.80
2017-12-14T08:11:16.168Z,16.20
2017-12-14T08:13:42.167Z,24.08
2017-12-14T08:16:08.400Z,21.60
2017-12-14T08:18:34.380Z,17.70
2017-12-14T08:21:00.376Z,18.63
2017-12-14T08:23:27.140Z,23.62
2017-12-14T08:25:53.853Z,19.57
2017-12-14T08:28:20.565Z,19.98
2017-12-14T08:30:46.816Z,24.23
2017-12-14T08:33:13.591Z,18.05
2017-12-14T08:35:39.915Z,18.17
2017-12-14T08:38:05.908Z,25.40
2017-12-14T08:40:32.624Z,22.15
2017-12-14T08:42:58.619Z,22.73
2017-12-14T08:45:24.608Z,26.55
2017-12-14T08:50:23.344Z,20.27
2017-12-14T08:52:49.307Z,22.13
2017-12-14T08:55:16.033Z,20.20
2017-12-14T08:57:42.273Z,24.20
2017-12-14T09:00:08.993Z,19.03
2017-12-14T09:02:34.964Z,20.45
2017-12-14T09:05:00.968Z,20.83
2017-12-14T09:07:27.652Z,20.37
2017-12-14T09:09:53.634Z,18.77
2017-12-14T09:12:19.843Z,21.90
2017-12-14T09:14:46.560Z,20.48
2017-12-14T09:17:12.536Z,15.52
2017-12-14T09:19:38.721Z,19.02
2017-12-14T09:22:05.421Z,18.23
2017-12-14T09:24:31.377Z,17.95
2017-12-14T09:26:57.515Z,15.03
2017-12-14T09:29:24.238Z,19.83
2017-12-14T09:31:50.220Z,19.73
2017-12-14T09:34:16.226Z,18.20
2017-12-14T09:36:42.228Z,17.90
2017-12-14T09:39:08.965Z,15.60
2017-12-14T09:41:35.900Z,15.25
2017-12-14T09:44:02.625Z,14.77
2017-12-14T09:46:28.617Z,16.60
2017-12-14T09:48:54.892Z,16.40
2017-12-14T09:51:21.632Z,16.48
2017-12-14T09:53:48.368Z,14.35
2017-12-14T09:56:15.352Z,14.20
2017-12-14T09:58:41.321Z,16.30
2017-12-14T10:01:07.320Z,34.50
2017-12-14T10:03:33.573Z,29.25
2017-12-14T10:05:59.543Z,17.00
2017-12-14T10:08:25.500Z,12.93
2017-12-14T10:10:51.739Z,15.63
2017-12-14T10:13:17.698Z,14.32
2017-12-14T10:15:43.668Z,11.10
2017-12-14T10:18:09.640Z,12.10
2017-12-14T10:20:35.592Z,9.35
2017-12-14T10:23:01.564Z,9.77
2017-12-14T10:25:28.301Z,10.05
2017-12-14T10:27:55.057Z,9.38
2017-12-14T10:30:21.029Z,8.02
2017-12-14T10:32:47.064Z,9.43
2017-12-14T10:35:13.797Z,8.27
2017-12-14T10:37:39.800Z,6.32
2017-12-14T10:40:05.784Z,7.07
2017-12-14T10:42:31.758Z,9.27
2017-12-14T10:44:58.000Z,9.13
2017-12-14T10:47:23.995Z,6.55
2017-12-14T10:49:49.960Z,7.35
2017-12-14T10:52:16.697Z,6.80
2017-12-14T10:54:43.761Z,9.38
2017-12-14T10:57:09.720Z,5.50
2017-12-14T10:59:35.725Z,7.10
2017-12-14T11:02:01.696Z,5.60
2017-12-14T11:04:27.657Z,8.20
2017-12-14T11:06:53.745Z,4.65
2017-12-14T11:09:20.447Z,4.50
2017-12-14T11:11:46.420Z,4.80
2017-12-14T11:14:13.140Z,4.82
2017-12-14T11:16:39.910Z,6.10
2017-12-14T11:19:05.876Z,4.80
2017-12-14T11:21:31.855Z,5.87
2017-12-14T11:23:57.828Z,5.18
2017-12-14T11:26:23.816Z,5.43
2017-12-14T11:28:49.824Z,6.37
2017-12-14T11:31:15.791Z,5.70
2017-12-14T11:33:41.780Z,5.25
2017-12-14T11:36:07.823Z,4.78
2017-12-14T11:38:33.786Z,5.50
2017-12-14T11:41:00.521Z,6.28
2017-12-14T11:43:27.232Z,5.93
2017-12-14T11:45:53.218Z,4.95
2017-12-14T11:48:19.393Z,4.93
2017-12-14T11:50:45.349Z,4.65
2017-12-14T11:53:11.321Z,5.75
2017-12-14T11:55:37.305Z,6.50
2017-12-14T11:58:03.300Z,5.30
2017-12-14T12:00:30.000Z,6.93
2017-12-14T12:02:56.344Z,5.95
2017-12-14T12:05:22.312Z,4.90
2017-12-14T12:07:48.272Z,5.50
2017-12-14T12:10:14.304Z,5.00
2017-12-14T12:12:40.221Z,5.80
2017-12-14T12:15:06.185Z,5.35
2017-12-14T12:17:32.180Z,5.60
2017-12-14T12:19:58.911Z,5.12
2017-12-14T12:22:24.872Z,6.90
2017-12-14T12:24:50.837Z,6.00
2017-12-14T12:27:16.816Z,6.67
2017-12-14T12:29:42.793Z,7.75
2017-12-14T12:32:08.809Z,6.12
2017-12-14T12:34:34.781Z,5.73
2017-12-14T12:37:00.757Z,7.03
2017-12-14T12:39:27.214Z,6.57
2017-12-14T12:41:53.944Z,7.03
2017-12-14T12:44:20.676Z,6.80
2017-12-14T12:46:47.624Z,6.90
2017-12-14T12:49:14.349Z,6.20
2017-12-14T12:51:41.090Z,7.50
2017-12-14T12:54:08.058Z,8.60
2017-12-14T12:56:34.782Z,10.60
2017-12-14T12:59:00.750Z,9.50
2017-12-14T13:01:26.931Z,8.20
2017-12-14T13:03:53.656Z,11.95
2017-12-14T13:06:19.666Z,9.52
2017-12-14T13:08:45.645Z,8.50
2017-12-14T13:11:11.624Z,9.65
2017-12-14T13:13:38.308Z,9.93
2017-12-14T13:16:04.308Z,9.63
2017-12-14T13:18:31.102Z,10.10
2017-12-14T13:20:57.060Z,10.40
2017-12-14T13:23:23.788Z,9.23
2017-12-14T13:25:50.748Z,8.82
2017-12-14T13:28:17.456Z,11.30
2017-12-14T13:30:43.436Z,9.35
2017-12-14T13:33:09.430Z,10.10
2017-12-14T13:35:36.144Z,7.22
2017-12-14T13:38:02.105Z,9.47
2017-12-14T13:40:28.141Z,9.55
2017-12-14T13:42:54.131Z,11.52
2017-12-14T13:45:20.869Z,10.35
2017-12-14T13:47:47.005Z,10.13
2017-12-14T13:50:13.747Z,11.03
2017-12-14T13:52:39.704Z,10.90
2017-12-14T13:55:05.690Z,11.63
2017-12-14T13:57:31.678Z,10.95
2017-12-14T13:59:57.627Z,9.20
2017-12-14T14:02:24.366Z,16.73
2017-12-14T14:04:50.354Z,13.90
2017-12-14T14:07:17.074Z,15.15
2017-12-14T14:09:43.058Z,11.03
2017-12-14T14:12:09.037Z,14.07
2017-12-14T14:14:35.004Z,14.50
2017-12-14T14:17:01.520Z,13.15
2017-12-14T14:19:28.237Z,15.67
2017-12-14T14:21:54.269Z,14.68
2017-12-14T14:24:21.024Z,12.40
2017-12-14T14:26:47.740Z,13.90
2017-12-14T14:29:13.716Z,12.93
2017-12-14T14:31:39.701Z,11.15
2017-12-14T14:34:06.409Z,10.83
2017-12-14T14:36:32.400Z,12.70
2017-12-14T14:38:58.373Z,12.23
2017-12-14T14:41:25.100Z,10.68
2017-12-14T14:43:51.073Z,12.60
2017-12-14T14:46:17.270Z,8.80
2017-12-14T14:48:43.974Z,10.35
2017-12-14T14:51:09.937Z,10.27
2017-12-14T14:53:35.939Z,10.27
2017-12-14T14:56:01.893Z,10.47
2017-12-14T14:58:27.872Z,9.57
2017-12-14T15:00:54.028Z,12.52
2017-12-14T15:03:19.993Z,11.47
2017-12-14T15:05:45.969Z,10.52
2017-12-14T15:08:11.950Z,9.93
2017-12-14T15:10:37.921Z,16.15
2017-12-14T15:13:03.964Z,9.88
2017-12-14T15:15:29.925Z,10.10
2017-12-14T15:17:55.916Z,8.85
2017-12-14T15:20:21.885Z,11.77
2017-12-14T15:22:48.622Z,11.00
2017-12-14T15:25:15.316Z,9.40
2017-12-14T15:27:41.305Z,10.07
2017-12-14T15:30:07.290Z,9.05
2017-12-14T15:32:33.296Z,10.80
2017-12-14T15:34:59.280Z,9.25
2017-12-14T15:37:25.260Z,10.02
2017-12-14T15:39:51.985Z,9.38
2017-12-14T15:42:17.952Z,10.73
2017-12-14T15:44:43.934Z,7.65
2017-12-14T15:47:09.884Z,8.18
2017-12-14T15:49:36.623Z,8.77
2017-12-14T15:52:02.600Z,9.07
2017-12-14T15:54:28.564Z,9.57
2017-12-14T15:56:55.284Z,11.02
2017-12-14T15:59:22.013Z,9.85
2017-12-14T16:01:48.041Z,11.23
2017-12-14T16:04:14.996Z,8.35
2017-12-14T16:06:41.709Z,9.30
2017-12-14T16:09:07.675Z,8.45
2017-12-14T16:11:33.648Z,12.48
2017-12-14T16:13:59.606Z,11.27
2017-12-14T16:16:26.536Z,9.45
2017-12-14T16:18:53.237Z,9.83
2017-12-14T16:21:19.222Z,11.65
2017-12-14T16:23:45.192Z,9.97
2017-12-14T16:26:11.151Z,8.85
2017-12-14T16:28:37.869Z,10.65
2017-12-14T16:31:04.168Z,12.70
2017-12-14T16:33:30.152Z,13.98
2017-12-14T16:35:56.115Z,13.23
2017-12-14T16:38:22.097Z,9.45
2017-12-14T16:40:48.115Z,13.88
2017-12-14T16:43:14.317Z,11.40
2017-12-14T16:45:41.031Z,10.57
2017-12-14T16:48:07.004Z,11.60
2017-12-14T16:50:33.175Z,12.25
2017-12-14T16:52:59.127Z,10.90
2017-12-14T16:55:25.841Z,10.75
2017-12-14T16:57:51.829Z,11.60
2017-12-14T17:00:17.808Z,11.40
2017-12-14T17:02:44.540Z,12.07
2017-12-14T17:05:11.276Z,11.35
2017-12-14T17:07:37.257Z,12.88
2017-12-14T17:10:03.211Z,12.30
2017-12-14T17:12:29.378Z,10.77
2017-12-14T17:14:55.672Z,11.57
2017-12-14T17:17:22.381Z,11.20
2017-12-14T17:19:48.384Z,13.70
2017-12-14T17:22:14.652Z,15.20
2017-12-14T17:24:40.612Z,12.40
2017-12-14T17:27:06.564Z,13.57
2017-12-14T17:29:32.934Z,11.82
2017-12-14T17:31:59.665Z,17.17
2017-12-14T17:34:25.632Z,13.30
2017-12-14T17:36:51.631Z,13.45
2017-12-14T17:39:18.384Z,13.38
2017-12-14T17:41:44.361Z,12.35
2017-12-14T17:44:10.355Z,14.52
2017-12-14T17:46:36.309Z,14.83
2017-12-14T17:49:02.320Z,14.57
2017-12-14T17:51:28.272Z,12.65
2017-12-14T17:53:54.998Z,11.88
2017-12-14T17:56:20.980Z,16.53
2017-12-14T17:58:46.973Z,14.65
2017-12-14T18:01:12.953Z,12.75
2017-12-14T18:03:39.293Z,14.63
2017-12-14T18:06:06.019Z,14.60
2017-12-14T18:08:32.727Z,16.65
2017-12-14T18:10:58.704Z,14.75
2017-12-14T18:13:25.412Z,14.90
2017-12-14T18:15:51.392Z,12.45
2017-12-14T18:18:17.797Z,17.98
2017-12-14T18:20:44.524Z,15.30
2017-12-14T18:23:11.233Z,14.50
2017-12-14T18:25:44.964Z,18.90
2017-12-14T18:28:11.690Z,16.23
2017-12-14T18:30:37.665Z,16.87
2017-12-14T18:33:03.661Z,14.40
2017-12-14T18:35:30.401Z,16.17
2017-12-14T18:37:57.121Z,18.50
2017-12-14T18:40:23.104Z,13.73
2017-12-14T18:42:49.174Z,16.02
2017-12-14T18:45:15.924Z,17.90
2017-12-14T18:47:42.829Z,16.27
2017-12-14T18:50:09.073Z,18.17
2017-12-14T18:52:35.041Z,17.77
2017-12-14T18:55:01.027Z,16.33
2017-12-14T18:57:28.111Z,14.60
2017-12-14T18:59:54.085Z,20.33
2017-12-14T19:02:20.065Z,14.10
2017-12-14T19:04:46.228Z,17.20
2017-12-14T19:07:12.209Z,15.65
2017-12-14T19:09:38.180Z,17.80
2017-12-14T19:12:05.221Z,17.23
2017-12-14T19:14:31.194Z,18.17
2017-12-14T19:16:57.211Z,16.10
2017-12-14T19:19:23.280Z,17.15
2017-12-14T19:21:49.252Z,19.83
2017-12-14T19:24:15.245Z,15.87
2017-12-14T19:26:41.980Z,16.80
2017-12-14T19:29:08.727Z,14.43
2017-12-14T19:31:35.445Z,15.90
2017-12-14T19:34:02.529Z,19.85
2017-12-14T19:36:28.502Z,17.27
2017-12-14T19:38:54.477Z,14.43
2017-12-14T19:41:20.494Z,19.10
2017-12-14T19:43:46.469Z,15.80
2017-12-14T19:46:12.437Z,18.00
2017-12-14T19:48:38.464Z,15.32
2017-12-14T19:51:04.446Z,15.82
2017-12-14T19:53:30.458Z,19.20
2017-12-14T19:55:57.551Z,19.73
2017-12-14T19:58:23.563Z,19.70
2017-12-14T20:00:50.347Z,19.25
2017-12-14T20:03:16.329Z,20.67
2017-12-14T20:05:42.316Z,15.97
2017-12-14T20:08:08.351Z,16.65
2017-12-14T20:10:35.081Z,19.15
2017-12-14T20:13:01.810Z,17.83
2017-12-14T20:15:27.796Z,17.85
2017-12-14T20:17:53.802Z,19.70
2017-12-14T20:20:19.770Z,18.70
2017-12-14T20:22:45.738Z,19.45
2017-12-14T20:25:11.733Z,20.27
2017-12-14T20:27:38.445Z,18.47
2017-12-14T20:30:04.630Z,21.50
2017-12-14T20:32:30.612Z,21.87
2017-12-14T20:34:56.581Z,17.90
2017-12-14T20:37:22.768Z,21.10
2017-12-14T20:39:49.481Z,22.17
2017-12-14T20:42:15.461Z,20.95
2017-12-14T20:44:41.669Z,18.53
2017-12-14T20:47:08.393Z,19.27
2017-12-14T20:49:35.149Z,18.05
2017-12-14T20:52:02.077Z,21.65
2017-12-14T20:54:28.822Z,19.42
2017-12-14T20:56:55.540Z,20.12
2017-12-14T20:59:21.540Z,19.97
2017-12-14T21:01:47.509Z,18.17
2017-12-14T21:04:14.229Z,20.05
2017-12-14T21:06:40.229Z,21.35
2017-12-14T21:09:06.197Z,20.15
2017-12-14T21:11:32.918Z,22.23
2017-12-14T21:13:59.646Z,23.62
2017-12-14T21:16:25.614Z,21.92
2017-12-14T21:18:51.612Z,22.92
2017-12-14T21:21:17.773Z,27.77
2017-12-14T21:23:43.760Z,25.30
2017-12-14T21:26:10.525Z,26.37
2017-12-14T21:28:36.757Z,27.65
2017-12-14T21:31:02.733Z,27.08
2017-12-14T21:33:29.479Z,28.00
2017-12-14T21:35:56.212Z,23.42
2017-12-14T21:38:23.164Z,26.70
2017-12-14T21:40:49.884Z,27.42
2017-12-14T21:43:15.849Z,27.47
2017-12-14T21:45:41.849Z,26.75
2017-12-14T21:48:08.552Z,30.58
2017-12-14T21:50:34.548Z,28.67
2017-12-14T21:53:00.549Z,30.07
2017-12-14T21:55:26.516Z,29.75
2017-12-14T21:57:52.476Z,31.77
2017-12-14T22:00:19.522Z,36.27
2017-12-14T22:02:46.240Z,31.37
2017-12-14T22:05:12.209Z,30.13
2017-12-14T22:07:38.488Z,29.77
2017-12-14T22:10:04.481Z,33.67
2017-12-14T22:12:30.453Z,32.63
2017-12-14T22:14:57.185Z,31.92
2017-12-14T22:17:23.914Z,32.50
2017-12-14T22:19:50.617Z,31.48
2017-12-14T22:22:16.764Z,33.25
2017-12-14T22:24:42.760Z,33.72
2017-12-14T22:27:08.704Z,35.25
2017-12-14T22:29:34.680Z,33.30
2017-12-14T22:32:00.668Z,33.08
2017-12-14T22:34:27.377Z,29.00
2017-12-14T22:36:53.340Z,32.80
2017-12-14T22:39:20.112Z,29.83
2017-12-14T22:41:46.796Z,32.85
2017-12-14T22:44:12.754Z,33.03
2017-12-14T22:46:38.740Z,36.90
2017-12-14T22:49:04.958Z,31.13
2017-12-14T22:51:30.942Z,35.72
2017-12-14T22:53:56.928Z,36.67
2017-12-14T22:56:23.648Z,36.20
2017-12-14T22:58:49.655Z,37.20
2017-12-14T23:01:15.623Z,32.47
2017-12-14T23:03:41.841Z,37.35
2017-12-14T23:06:07.808Z,37.38
2017-12-14T23:08:33.768Z,35.70
2017-12-14T23:11:07.524Z,36.67
2017-12-14T23:13:33.486Z,42.80
2017-12-14T23:16:00.218Z,37.25
2017-12-14T23:18:26.210Z,38.00
2017-12-14T23:20:52.181Z,36.92
2017-12-14T23:23:18.898Z,35.00
2017-12-14T23:25:44.884Z,32.25
2017-12-14T23:28:10.886Z,31.87
2017-12-14T23:30:36.860Z,33.90
2017-12-14T23:33:02.866Z,31.12
2017-12-14T23:35:28.836Z,36.13
2017-12-14T23:37:54.808Z,32.15
2017-12-14T23:40:20.796Z,32.45
2017-12-14T23:42:46.767Z,29.75
2017-12-14T23:45:12.740Z,29.50
2017-12-14T23:47:38.748Z,32.20
2017-12-14T23:50:04.717Z,28.73
2017-12-14T23:52:30.704Z,29.85
2017-12-14T23:54:56.696Z,29.12
2017-12-14T23:57:22.692Z,29.17
2017-12-14T23:59:48.677Z,29.75
